Time;durP1;ratioP1;P1;durP2;ratioP2;P2;SDS_P1;SDS_P2;PMS_P1;PMS_P2;Temp;Humidity;BMP_temperature;BMP_pressure;BME280_temperature;BME280_humidity;BME280_pressure;Samples;Min_cycle;Max_cycle;Signal;HPM_P1;HPM_P2
2023/10/07 00:00:49;;;;;;;;;;;9.50;99.90;;;;;;5114484;28;19981;-75
2023/10/07 00:03:18;;;;;;;;;;;9.50;99.90;;;;;;5110894;28;20143;-74
2023/10/07 00:05:46;;;;;;;;;;;9.50;99.90;;;;;;5110321;28;19920;-75
2023/10/07 00:08:16;;;;;;;;;;;9.40;99.90;;;;;;5111243;28;20174;-74
2023/10/07 00:10:46;;;;;;;;;;;9.40;99.90;;;;;;5110942;28;19920;-74
2023/10/07 00:13:13;;;;;;;;;;;9.40;99.90;;;;;;5110674;28;19973;-75
2023/10/07 00:15:42;;;;;;;;;;;9.30;99.90;;;;;;5106829;28;20151;-73
2023/10/07 00:18:12;;;;;;;;;;;9.30;99.90;;;;;;5110396;28;20231;-75
2023/10/07 00:20:41;;;;;;;;;;;9.30;99.90;;;;;;5107408;28;20205;-75
2023/10/07 00:23:09;;;;;;;;;;;9.20;99.90;;;;;;5111962;28;19975;-75
2023/10/07 00:25:38;;;;;;;;;;;9.20;99.90;;;;;;5108554;28;20362;-74
2023/10/07 00:28:09;;;;;;;;;;;9.10;99.90;;;;;;5111537;28;20265;-75
2023/10/07 00:30:36;;;;;;;;;;;9.10;99.90;;;;;;5110670;28;20131;-75
2023/10/07 00:33:03;;;;;;;;;;;9.00;99.90;;;;;;5111384;28;19920;-75
2023/10/07 00:35:31;;;;;;;;;;;9.00;99.90;;;;;;5111790;28;19920;-75
2023/10/07 00:37:58;;;;;;;;;;;9.00;99.90;;;;;;5110684;28;19942;-75
2023/10/07 00:40:39;;;;;;;;;;;9.00;99.90;;;;;;5114492;28;19943;-74
2023/10/07 00:43:09;;;;;;;;;;;9.10;99.90;;;;;;5107350;28;20117;-74
2023/10/07 00:45:35;;;;;;;;;;;9.00;99.90;;;;;;5111458;28;19995;-74
2023/10/07 00:48:10;;;;;;;;;;;9.00;99.90;;;;;;5109084;28;19987;-74
2023/10/07 00:50:38;;;;;;;;;;;9.00;99.90;;;;;;5110058;28;19920;-74
2023/10/07 00:53:06;;;;;;;;;;;9.00;99.90;;;;;;5111124;28;19954;-73
2023/10/07 00:55:35;;;;;;;;;;;9.00;99.90;;;;;;5109190;28;19954;-74
2023/10/07 00:58:08;;;;;;;;;;;9.00;99.90;;;;;;5110970;28;20098;-74
2023/10/07 01:00:42;;;;;;;;;;;9.00;99.90;;;;;;5110193;28;19920;-73
2023/10/07 01:03:17;;;;;;;;;;;9.00;99.90;;;;;;5108853;28;19926;-73
2023/10/07 01:05:55;;;;;;;;;;;9.00;99.90;;;;;;5109308;28;19916;-73
2023/10/07 01:08:26;;;;;;;;;;;9.00;99.90;;;;;;5106669;28;20100;-74
2023/10/07 01:11:11;;;;;;;;;;;9.00;99.90;;;;;;5113169;28;19923;-75
2023/10/07 01:13:45;;;;;;;;;;;9.00;99.90;;;;;;5110805;28;19923;-74
2023/10/07 01:16:24;;;;;;;;;;;8.90;99.90;;;;;;5105884;28;19994;-75
2023/10/07 01:18:51;;;;;;;;;;;8.90;99.90;;;;;;5108129;28;20121;-74
2023/10/07 01:21:31;;;;;;;;;;;8.90;99.90;;;;;;5109858;28;19920;-74
2023/10/07 01:24:00;;;;;;;;;;;8.90;99.90;;;;;;5111189;28;19920;-73
2023/10/07 01:26:30;;;;;;;;;;;8.90;99.90;;;;;;5110253;28;19924;-74
2023/10/07 01:29:11;;;;;;;;;;;8.90;99.90;;;;;;5109311;28;19947;-74
2023/10/07 01:31:42;;;;;;;;;;;8.80;99.90;;;;;;5110777;28;19928;-74
2023/10/07 01:34:13;;;;;;;;;;;8.90;99.90;;;;;;5107272;28;20228;-75
2023/10/07 01:36:41;;;;;;;;;;;8.80;99.90;;;;;;5112163;28;19938;-75
2023/10/07 01:39:10;;;;;;;;;;;8.80;99.90;;;;;;5106293;28;19951;-75
2023/10/07 01:41:37;;;;;;;;;;;8.80;99.90;;;;;;5105809;28;19924;-75
2023/10/07 01:44:05;;;;;;;;;;;8.80;99.90;;;;;;5109896;28;19928;-75
2023/10/07 01:46:32;;;;;;;;;;;8.70;99.90;;;;;;5112633;28;19977;-75
2023/10/07 01:49:01;;;;;;;;;;;8.70;99.90;;;;;;5109865;28;19951;-75
2023/10/07 01:51:28;;;;;;;;;;;8.70;99.90;;;;;;5108973;28;19927;-75
2023/10/07 01:53:56;;;;;;;;;;;8.70;99.90;;;;;;5110735;28;19927;-74
2023/10/07 01:56:26;;;;;;;;;;;8.70;99.90;;;;;;5108736;28;19948;-75
2023/10/07 01:58:55;;;;;;;;;;;8.70;99.90;;;;;;5112319;28;19927;-74
2023/10/07 02:01:23;;;;;;;;;;;8.60;99.90;;;;;;5107946;28;19920;-75
2023/10/07 02:03:50;;;;;;;;;;;8.70;99.90;;;;;;5109178;28;19990;-76
2023/10/07 02:06:18;;;;;;;;;;;8.60;99.90;;;;;;5108561;28;19924;-75
2023/10/07 02:08:45;;;;;;;;;;;8.60;99.90;;;;;;5110489;28;19984;-75
2023/10/07 02:11:11;;;;;;;;;;;8.60;99.90;;;;;;5106262;28;19991;-75
2023/10/07 02:13:39;;;;;;;;;;;8.60;99.90;;;;;;5118460;28;19966;-75
2023/10/07 02:16:07;;;;;;;;;;;8.60;99.90;;;;;;5108307;28;20268;-76
2023/10/07 02:18:35;;;;;;;;;;;8.50;99.90;;;;;;5109053;28;20117;-75
2023/10/07 02:21:08;;;;;;;;;;;8.50;99.90;;;;;;5109542;28;20113;-75
2023/10/07 02:23:37;;;;;;;;;;;8.40;99.90;;;;;;5110481;28;19954;-74
2023/10/07 02:26:05;;;;;;;;;;;8.40;99.90;;;;;;5111547;28;19986;-74
2023/10/07 02:28:33;;;;;;;;;;;8.40;99.90;;;;;;5110492;28;19989;-75
2023/10/07 02:31:02;;;;;;;;;;;8.30;99.90;;;;;;5109932;28;19934;-74
2023/10/07 02:33:29;;;;;;;;;;;8.30;99.90;;;;;;5108836;28;19920;-74
2023/10/07 02:35:57;;;;;;;;;;;8.30;99.90;;;;;;5109770;28;19920;-74
2023/10/07 02:38:36;;;;;;;;;;;8.30;99.90;;;;;;5108265;28;19951;-75
2023/10/07 02:41:07;;;;;;;;;;;8.30;99.90;;;;;;5108264;28;20117;-75
2023/10/07 02:43:35;;;;;;;;;;;8.20;99.90;;;;;;5110611;28;19920;-75
2023/10/07 02:46:05;;;;;;;;;;;8.20;99.90;;;;;;5107579;28;19920;-74
2023/10/07 02:48:35;;;;;;;;;;;8.20;99.90;;;;;;5110141;28;19950;-74
2023/10/07 02:51:10;;;;;;;;;;;8.20;99.90;;;;;;5110340;28;19986;-74
2023/10/07 02:53:37;;;;;;;;;;;8.10;99.90;;;;;;5112676;28;19927;-73
2023/10/07 02:56:16;;;;;;;;;;;8.10;99.90;;;;;;5108371;28;19920;-75
2023/10/07 02:58:51;;;;;;;;;;;8.10;99.90;;;;;;5104459;28;19927;-74
2023/10/07 03:01:25;;;;;;;;;;;8.10;99.90;;;;;;5111206;28;19920;-74
2023/10/07 03:03:52;;;;;;;;;;;8.10;99.90;;;;;;5113333;28;20236;-74
2023/10/07 03:06:18;;;;;;;;;;;8.10;99.90;;;;;;5111673;28;19951;-74
2023/10/07 03:08:49;;;;;;;;;;;8.00;99.90;;;;;;5107491;28;19920;-74
2023/10/07 03:11:22;;;;;;;;;;;8.00;99.90;;;;;;5116478;28;19928;-74
2023/10/07 03:13:49;;;;;;;;;;;8.00;99.90;;;;;;5112935;28;19920;-74
2023/10/07 03:16:45;;;;;;;;;;;7.90;99.90;;;;;;5111968;28;19951;-75
2023/10/07 03:19:30;;;;;;;;;;;7.90;99.90;;;;;;5107114;28;19978;-75
2023/10/07 03:22:09;;;;;;;;;;;7.90;99.90;;;;;;5102999;28;19924;-74
2023/10/07 03:24:42;;;;;;;;;;;7.80;99.90;;;;;;5114044;28;19973;-74
2023/10/07 03:27:20;;;;;;;;;;;7.90;99.90;;;;;;5113956;28;19920;-74
2023/10/07 03:29:59;;;;;;;;;;;7.90;99.90;;;;;;5112331;28;20213;-74
2023/10/07 03:32:32;;;;;;;;;;;8.00;99.90;;;;;;5107934;28;19920;-74
2023/10/07 03:35:00;;;;;;;;;;;8.00;99.90;;;;;;5112996;28;20252;-74
2023/10/07 03:37:28;;;;;;;;;;;8.10;99.90;;;;;;5113051;28;19920;-74
2023/10/07 03:40:18;;;;;;;;;;;8.20;99.90;;;;;;5114027;28;19927;-74
2023/10/07 03:42:46;;;;;;;;;;;8.20;99.90;;;;;;5110133;28;19956;-74
2023/10/07 03:45:14;;;;;;;;;;;8.20;99.90;;;;;;5112420;28;20231;-74
2023/10/07 03:47:42;;;;;;;;;;;8.20;99.90;;;;;;5114803;28;19928;-74
2023/10/07 03:50:24;;;;;;;;;;;8.30;99.90;;;;;;5110061;28;19920;-74
2023/10/07 03:52:51;;;;;;;;;;;8.30;99.90;;;;;;5112561;28;19942;-74
2023/10/07 03:55:18;;;;;;;;;;;8.30;99.90;;;;;;5111671;28;19920;-74
2023/10/07 03:57:45;;;;;;;;;;;8.40;99.90;;;;;;5114309;28;19983;-74
2023/10/07 04:00:13;;;;;;;;;;;8.50;99.90;;;;;;5114397;28;19920;-74
2023/10/07 04:02:44;;;;;;;;;;;8.60;99.90;;;;;;5114401;28;19932;-74
2023/10/07 04:05:12;;;;;;;;;;;8.70;99.90;;;;;;5109627;28;19924;-74
2023/10/07 04:07:39;;;;;;;;;;;8.70;99.90;;;;;;5111625;28;19920;-74
2023/10/07 04:10:15;;;;;;;;;;;8.70;99.90;;;;;;5113515;28;19955;-72
2023/10/07 04:12:46;;;;;;;;;;;8.80;99.90;;;;;;5110712;28;19927;-73
2023/10/07 04:15:16;;;;;;;;;;;8.90;99.90;;;;;;5109718;28;19927;-75
2023/10/07 04:17:44;;;;;;;;;;;8.90;99.90;;;;;;5111340;28;20012;-74
2023/10/07 04:20:22;;;;;;;;;;;8.90;99.90;;;;;;5112731;28;19924;-74
2023/10/07 04:22:57;;;;;;;;;;;8.90;99.90;;;;;;5106289;28;19920;-74
2023/10/07 04:25:24;;;;;;;;;;;8.90;99.90;;;;;;5108366;28;19983;-74
2023/10/07 04:27:53;;;;;;;;;;;9.00;99.90;;;;;;5110071;28;19962;-75
2023/10/07 04:30:23;;;;;;;;;;;9.00;99.90;;;;;;5111376;28;19920;-74
2023/10/07 04:32:53;;;;;;;;;;;9.10;99.90;;;;;;5113085;28;19955;-73
2023/10/07 04:35:22;;;;;;;;;;;9.10;99.90;;;;;;5112730;28;20255;-74
2023/10/07 04:37:52;;;;;;;;;;;9.10;99.90;;;;;;5111203;28;20372;-74
2023/10/07 04:45:49;;;;;;;;;;;9.00;99.90;;;;;;5112967;28;19951;-74
2023/10/07 04:48:24;;;;;;;;;;;8.90;99.90;;;;;;5108071;28;19920;-74
2023/10/07 04:51:03;;;;;;;;;;;8.90;99.90;;;;;;5106637;28;20210;-74
2023/10/07 04:53:37;;;;;;;;;;;8.80;99.90;;;;;;5112443;28;19943;-75
2023/10/07 04:56:04;;;;;;;;;;;8.80;99.90;;;;;;5112149;28;19931;-75
2023/10/07 04:58:30;;;;;;;;;;;8.70;99.90;;;;;;5108446;28;20024;-75
2023/10/07 05:01:04;;;;;;;;;;;8.70;99.90;;;;;;5109960;28;19923;-75
2023/10/07 05:03:30;;;;;;;;;;;8.70;99.90;;;;;;5110328;28;19928;-75
2023/10/07 05:06:00;;;;;;;;;;;8.70;99.90;;;;;;5111130;28;19961;-75
2023/10/07 05:08:27;;;;;;;;;;;8.70;99.90;;;;;;5105250;28;19961;-75
2023/10/07 05:11:04;;;;;;;;;;;8.70;99.90;;;;;;5112787;28;20109;-75
2023/10/07 05:13:32;;;;;;;;;;;8.70;99.90;;;;;;5108171;28;19983;-75
2023/10/07 05:15:58;;;;;;;;;;;8.60;99.90;;;;;;5110828;28;19920;-75
2023/10/07 05:18:24;;;;;;;;;;;8.60;99.90;;;;;;5111284;28;20188;-75
2023/10/07 05:20:51;;;;;;;;;;;8.60;99.90;;;;;;5109903;28;19916;-75
2023/10/07 05:23:19;;;;;;;;;;;8.60;99.90;;;;;;5109844;28;19956;-74
2023/10/07 05:25:49;;;;;;;;;;;8.60;99.90;;;;;;5107992;28;19955;-75
2023/10/07 05:28:17;;;;;;;;;;;8.70;99.90;;;;;;5112311;28;19927;-75
2023/10/07 05:30:50;;;;;;;;;;;8.70;99.90;;;;;;5113063;28;19920;-75
2023/10/07 05:33:17;;;;;;;;;;;8.70;99.90;;;;;;5108983;28;19941;-75
2023/10/07 05:35:43;;;;;;;;;;;8.70;99.90;;;;;;5109368;28;19955;-75
2023/10/07 05:38:10;;;;;;;;;;;8.70;99.90;;;;;;5109646;28;20165;-70
2023/10/07 05:40:39;;;;;;;;;;;8.70;99.90;;;;;;5108738;28;19927;-74
2023/10/07 05:43:08;;;;;;;;;;;8.80;99.90;;;;;;5111998;28;19919;-74
2023/10/07 05:45:34;;;;;;;;;;;8.80;99.90;;;;;;5108935;28;20260;-74
2023/10/07 05:48:01;;;;;;;;;;;8.90;99.90;;;;;;5107299;28;19987;-75
2023/10/07 05:50:28;;;;;;;;;;;8.90;99.90;;;;;;5105053;28;19920;-75
2023/10/07 05:52:55;;;;;;;;;;;8.90;99.90;;;;;;5109410;28;19947;-75
2023/10/07 05:55:22;;;;;;;;;;;8.90;99.90;;;;;;5109057;28;19927;-74
2023/10/07 05:57:52;;;;;;;;;;;8.90;99.90;;;;;;5112422;28;19926;-75
2023/10/07 06:00:18;;;;;;;;;;;8.90;99.90;;;;;;5106969;28;19924;-73
2023/10/07 06:02:46;;;;;;;;;;;8.90;99.90;;;;;;5108532;28;19920;-76
2023/10/07 06:05:12;;;;;;;;;;;8.90;99.90;;;;;;5109015;28;20180;-74
2023/10/07 06:07:39;;;;;;;;;;;8.90;99.90;;;;;;5109339;28;19920;-75
2023/10/07 06:10:06;;;;;;;;;;;8.90;99.90;;;;;;5110093;28;19988;-75
2023/10/07 06:12:34;;;;;;;;;;;8.90;99.90;;;;;;5107063;28;19928;-75
2023/10/07 06:15:08;;;;;;;;;;;8.90;99.90;;;;;;5110715;28;19920;-75
2023/10/07 06:17:34;;;;;;;;;;;9.00;99.90;;;;;;5106216;28;19983;-75
2023/10/07 06:20:13;;;;;;;;;;;9.10;99.90;;;;;;5109481;28;19962;-74
2023/10/07 06:22:45;;;;;;;;;;;9.10;99.90;;;;;;5108592;28;19920;-74
2023/10/07 06:25:12;;;;;;;;;;;9.10;99.90;;;;;;5107040;28;19920;-74
2023/10/07 06:27:42;;;;;;;;;;;9.10;99.90;;;;;;5107119;28;19955;-74
2023/10/07 06:30:11;;;;;;;;;;;9.10;99.90;;;;;;5108201;28;19986;-74
2023/10/07 06:32:44;;;;;;;;;;;9.20;99.90;;;;;;5111898;28;19920;-74
2023/10/07 06:35:13;;;;;;;;;;;9.20;99.90;;;;;;5106070;28;19927;-75
2023/10/07 06:37:40;;;;;;;;;;;9.30;99.90;;;;;;5109534;28;19958;-75
2023/10/07 06:40:22;;;;;;;;;;;9.40;99.90;;;;;;5108878;28;19955;-75
2023/10/07 06:42:49;;;;;;;;;;;9.40;99.90;;;;;;5109989;28;19920;-75
2023/10/07 06:45:17;;;;;;;;;;;9.50;99.90;;;;;;5109628;28;19927;-74
2023/10/07 06:47:45;;;;;;;;;;;9.60;99.90;;;;;;5113638;28;19961;-75
2023/10/07 06:50:18;;;;;;;;;;;9.60;99.90;;;;;;5105907;28;19920;-74
2023/10/07 06:52:44;;;;;;;;;;;9.70;99.90;;;;;;5106822;28;19927;-75
2023/10/07 06:55:11;;;;;;;;;;;9.70;99.90;;;;;;5104847;28;19952;-75
2023/10/07 06:57:38;;;;;;;;;;;9.80;99.90;;;;;;5109257;28;20233;-75
2023/10/07 07:00:11;;;;;;;;;;;9.90;99.90;;;;;;5107478;28;19928;-75
2023/10/07 07:02:42;;;;;;;;;;;9.90;99.90;;;;;;5106202;28;20325;-75
2023/10/07 07:05:15;;;;;;;;;;;10.00;99.90;;;;;;5108919;28;20090;-75
2023/10/07 07:07:42;;;;;;;;;;;10.10;99.90;;;;;;5113095;28;19920;-75
2023/10/07 07:10:09;;;;;;;;;;;10.20;99.90;;;;;;5110208;28;19927;-74
2023/10/07 07:12:36;;;;;;;;;;;10.20;99.90;;;;;;5110343;28;19927;-75
2023/10/07 07:15:05;;;;;;;;;;;10.30;99.90;;;;;;5111104;28;19926;-75
2023/10/07 07:17:36;;;;;;;;;;;10.50;99.90;;;;;;5111819;28;20094;-74
2023/10/07 07:20:29;;;;;;;;;;;10.70;99.90;;;;;;5111087;28;19926;-75
2023/10/07 07:22:58;;;;;;;;;;;10.90;99.90;;;;;;5112134;28;20112;-75
2023/10/07 07:25:35;;;;;;;;;;;11.10;99.90;;;;;;5109391;28;19923;-74
2023/10/07 07:28:05;;;;;;;;;;;11.30;99.90;;;;;;5115720;28;19928;-74
2023/10/07 07:30:31;;;;;;;;;;;11.60;99.90;;;;;;5115084;28;19919;-75
2023/10/07 07:32:59;;;;;;;;;;;11.70;99.90;;;;;;5110220;28;20205;-74
2023/10/07 07:35:39;;;;;;;;;;;11.90;99.90;;;;;;5115177;28;20113;-75
2023/10/07 07:38:11;;;;;;;;;;;12.00;99.90;;;;;;5116307;28;20180;-73
2023/10/07 07:40:41;;;;;;;;;;;12.10;99.90;;;;;;5110688;28;19920;-74
2023/10/07 07:43:08;;;;;;;;;;;12.10;99.90;;;;;;5116516;28;19920;-73
2023/10/07 07:45:36;;;;;;;;;;;12.20;99.90;;;;;;5114147;28;19947;-74
2023/10/07 07:48:06;;;;;;;;;;;12.30;99.90;;;;;;5116738;28;19920;-75
2023/10/07 07:50:35;;;;;;;;;;;12.40;99.90;;;;;;5118538;28;19955;-76
2023/10/07 07:53:06;;;;;;;;;;;12.40;99.90;;;;;;5112215;28;19927;-75
2023/10/07 07:55:34;;;;;;;;;;;12.50;99.90;;;;;;5117891;28;20236;-76
2023/10/07 07:58:02;;;;;;;;;;;12.50;99.90;;;;;;5118960;28;19986;-75
2023/10/07 08:00:31;;;;;;;;;;;12.60;99.90;;;;;;5116451;28;19935;-75
2023/10/07 08:02:58;;;;;;;;;;;12.60;99.90;;;;;;5112973;28;20296;-75
2023/10/07 08:05:28;;;;;;;;;;;12.70;99.90;;;;;;5118605;28;19935;-74
2023/10/07 08:07:58;;;;;;;;;;;12.80;99.90;;;;;;5117516;28;20264;-75
2023/10/07 08:10:24;;;;;;;;;;;12.80;99.90;;;;;;5111248;28;19942;-75
2023/10/07 08:12:51;;;;;;;;;;;12.90;99.90;;;;;;5117302;28;19920;-75
2023/10/07 08:15:22;;;;;;;;;;;13.00;99.90;;;;;;5112700;28;19964;-76
2023/10/07 08:17:52;;;;;;;;;;;13.10;99.90;;;;;;5114005;28;19920;-74
2023/10/07 08:20:27;;;;;;;;;;;13.30;99.90;;;;;;5119571;28;19968;-73
2023/10/07 08:22:54;;;;;;;;;;;13.30;99.90;;;;;;5109007;28;19928;-74
2023/10/07 08:25:37;;;;;;;;;;;13.40;99.90;;;;;;5112694;28;19926;-74
2023/10/07 08:28:18;;;;;;;;;;;13.50;99.90;;;;;;5116740;28;19920;-76
2023/10/07 08:30:46;;;;;;;;;;;13.50;99.90;;;;;;5100427;28;19987;-73
2023/10/07 08:33:14;;;;;;;;;;;13.60;99.90;;;;;;5114671;28;19920;-73
2023/10/07 08:35:43;;;;;;;;;;;13.70;99.90;;;;;;5110613;28;19927;-74
2023/10/07 08:38:20;;;;;;;;;;;13.70;99.90;;;;;;5103807;28;19927;-74
2023/10/07 08:40:51;;;;;;;;;;;13.80;99.90;;;;;;5112594;28;19920;-74
2023/10/07 08:43:25;;;;;;;;;;;13.80;99.90;;;;;;5119291;28;19958;-75
2023/10/07 08:45:52;;;;;;;;;;;13.90;99.90;;;;;;5113379;28;19983;-74
2023/10/07 08:48:19;;;;;;;;;;;13.90;99.90;;;;;;5114005;28;19920;-74
2023/10/07 08:50:55;;;;;;;;;;;14.00;99.90;;;;;;5115130;28;19952;-74
2023/10/07 08:53:23;;;;;;;;;;;14.00;99.90;;;;;;5111758;28;19958;-74
2023/10/07 08:55:53;;;;;;;;;;;14.10;99.90;;;;;;5112203;28;19928;-74
2023/10/07 08:58:20;;;;;;;;;;;14.10;99.90;;;;;;5117371;28;19919;-74
2023/10/07 09:00:50;;;;;;;;;;;14.20;99.90;;;;;;5106372;28;19924;-75
2023/10/07 09:03:19;;;;;;;;;;;14.20;99.90;;;;;;5112871;28;19924;-75
2023/10/07 09:05:47;;;;;;;;;;;14.30;99.90;;;;;;5112483;28;19919;-74
2023/10/07 09:08:15;;;;;;;;;;;14.20;99.90;;;;;;5111584;28;19920;-74
2023/10/07 09:10:45;;;;;;;;;;;14.30;99.90;;;;;;5104841;28;19926;-74
2023/10/07 09:13:19;;;;;;;;;;;14.30;99.90;;;;;;5110145;28;20262;-75
2023/10/07 09:15:52;;;;;;;;;;;14.40;99.90;;;;;;5110835;28;19928;-74
2023/10/07 09:18:28;;;;;;;;;;;14.40;99.90;;;;;;5114341;28;20259;-75
2023/10/07 09:20:56;;;;;;;;;;;14.40;99.90;;;;;;5112169;28;19923;-74
2023/10/07 09:23:33;;;;;;;;;;;14.50;99.90;;;;;;5111200;28;20255;-75
2023/10/07 09:26:14;;;;;;;;;;;14.60;99.90;;;;;;5114458;28;19962;-74
2023/10/07 09:28:46;;;;;;;;;;;14.60;99.90;;;;;;5107701;28;19932;-74
2023/10/07 09:31:15;;;;;;;;;;;14.70;99.90;;;;;;5106969;28;19961;-74
2023/10/07 09:33:45;;;;;;;;;;;14.80;99.90;;;;;;5107373;28;19928;-74
2023/10/07 09:36:33;;;;;;;;;;;14.80;99.90;;;;;;5105720;28;19919;-74
2023/10/07 09:39:31;;;;;;;;;;;14.80;99.90;;;;;;5112690;28;19926;-74
2023/10/07 09:42:04;;;;;;;;;;;14.90;99.90;;;;;;5111196;28;19920;-74
2023/10/07 09:44:31;;;;;;;;;;;15.00;99.90;;;;;;5110480;28;19923;-72
2023/10/07 09:47:03;;;;;;;;;;;15.00;99.90;;;;;;5115204;28;19963;-75
2023/10/07 09:49:30;;;;;;;;;;;15.10;99.90;;;;;;5105549;28;20113;-74
2023/10/07 09:52:04;;;;;;;;;;;15.20;99.90;;;;;;5100704;28;20090;-74
2023/10/07 09:54:47;;;;;;;;;;;15.20;99.90;;;;;;5110555;28;20218;-73
2023/10/07 09:57:20;;;;;;;;;;;15.20;99.90;;;;;;5104411;28;19986;-75
2023/10/07 10:00:00;;;;;;;;;;;15.30;99.90;;;;;;5110959;28;19959;-74
2023/10/07 10:02:43;;;;;;;;;;;15.30;99.90;;;;;;5109119;28;19920;-75
2023/10/07 10:05:26;;;;;;;;;;;15.40;99.90;;;;;;5105003;28;19935;-74
2023/10/07 10:08:19;;;;;;;;;;;15.40;99.90;;;;;;5112196;28;19927;-74
2023/10/07 10:13:53;;;;;;;;;;;15.40;99.90;;;;;;5111618;28;19945;-75
2023/10/07 10:16:29;;;;;;;;;;;15.50;99.90;;;;;;5110130;28;20033;-73
2023/10/07 10:19:12;;;;;;;;;;;15.50;99.90;;;;;;5107256;28;20207;-73
2023/10/07 10:21:38;;;;;;;;;;;15.40;99.90;;;;;;5108649;28;19928;-74
2023/10/07 10:24:04;;;;;;;;;;;15.40;99.90;;;;;;5106745;28;19989;-73
2023/10/07 10:26:33;;;;;;;;;;;15.40;99.90;;;;;;5107303;28;19919;-74
2023/10/07 10:29:07;;;;;;;;;;;15.30;99.90;;;;;;5102978;28;19920;-74
2023/10/07 10:31:37;;;;;;;;;;;15.30;99.90;;;;;;5109640;28;20492;-74
2023/10/07 10:34:08;;;;;;;;;;;15.30;99.90;;;;;;5106813;28;19928;-75
2023/10/07 10:36:48;;;;;;;;;;;15.20;99.90;;;;;;5113827;28;19955;-71
2023/10/07 10:39:18;;;;;;;;;;;15.20;99.90;;;;;;5111088;28;20109;-74
2023/10/07 10:41:45;;;;;;;;;;;15.20;99.90;;;;;;5103688;28;19927;-73
2023/10/07 10:44:15;;;;;;;;;;;15.20;99.90;;;;;;5117011;28;19938;-74
2023/10/07 10:46:46;;;;;;;;;;;15.20;99.90;;;;;;5114533;28;19924;-74
2023/10/07 10:49:13;;;;;;;;;;;15.20;99.90;;;;;;5102919;28;19920;-74
2023/10/07 10:51:45;;;;;;;;;;;15.20;99.90;;;;;;5113056;28;19920;-74
2023/10/07 10:54:16;;;;;;;;;;;15.10;99.90;;;;;;5105422;28;19920;-75
2023/10/07 10:56:47;;;;;;;;;;;15.10;99.90;;;;;;5113494;28;19928;-75
2023/10/07 10:59:14;;;;;;;;;;;15.10;99.90;;;;;;5106024;28;19956;-75
2023/10/07 11:01:43;;;;;;;;;;;15.10;99.90;;;;;;5112983;28;20239;-74
2023/10/07 11:04:13;;;;;;;;;;;15.10;99.90;;;;;;5109948;28;19982;-75
2023/10/07 11:06:40;;;;;;;;;;;15.10;99.90;;;;;;5109607;28;19924;-77
2023/10/07 11:09:09;;;;;;;;;;;15.10;99.90;;;;;;5104817;28;19996;-74
2023/10/07 11:11:35;;;;;;;;;;;15.20;99.90;;;;;;5110663;28;19921;-74
2023/10/07 11:14:06;;;;;;;;;;;15.20;99.90;;;;;;5098944;28;19980;-74
2023/10/07 11:16:43;;;;;;;;;;;15.30;99.90;;;;;;5097705;28;19962;-74
2023/10/07 11:19:11;;;;;;;;;;;15.40;99.90;;;;;;5101464;28;19959;-74
2023/10/07 11:21:44;;;;;;;;;;;15.40;99.90;;;;;;5110037;28;19924;-74
2023/10/07 11:24:14;;;;;;;;;;;15.50;99.90;;;;;;5104482;28;19935;-74
2023/10/07 11:26:42;;;;;;;;;;;15.60;99.90;;;;;;5110735;28;20068;-74
2023/10/07 11:29:13;;;;;;;;;;;15.70;99.90;;;;;;5107167;28;19920;-74
2023/10/07 11:31:41;;;;;;;;;;;15.70;99.90;;;;;;5106874;28;19921;-74
2023/10/07 11:34:08;;;;;;;;;;;15.90;99.90;;;;;;5113475;28;19920;-74
2023/10/07 11:36:46;;;;;;;;;;;15.90;99.90;;;;;;5105740;28;19928;-73
2023/10/07 11:39:14;;;;;;;;;;;16.00;99.90;;;;;;5109974;28;19982;-72
2023/10/07 11:41:41;;;;;;;;;;;15.90;99.90;;;;;;5115042;28;19928;-74
2023/10/07 11:44:09;;;;;;;;;;;15.90;99.90;;;;;;5117227;28;19920;-73
2023/10/07 11:46:36;;;;;;;;;;;16.00;99.90;;;;;;5110895;28;19932;-74
2023/10/07 11:49:03;;;;;;;;;;;16.00;99.90;;;;;;5112498;28;19960;-74
2023/10/07 11:51:32;;;;;;;;;;;16.10;99.90;;;;;;5113680;28;19971;-74
2023/10/07 11:54:00;;;;;;;;;;;16.10;99.90;;;;;;5112048;28;19920;-74
2023/10/07 11:56:27;;;;;;;;;;;16.20;99.90;;;;;;5117171;28;19920;-74
2023/10/07 11:59:06;;;;;;;;;;;16.20;99.90;;;;;;5116169;28;19928;-77
2023/10/07 12:04:16;;;;;;;;;;;16.30;99.90;;;;;;5110311;28;19916;-74
2023/10/07 12:06:45;;;;;;;;;;;16.40;99.90;;;;;;5112745;28;20206;-74
2023/10/07 12:09:18;;;;;;;;;;;16.40;99.90;;;;;;5110292;28;19928;-74
2023/10/07 12:11:45;;;;;;;;;;;16.40;99.90;;;;;;5108205;28;19919;-74
2023/10/07 12:17:07;;;;;;;;;;;16.60;99.90;;;;;;5103424;28;19920;-74
2023/10/07 12:19:35;;;;;;;;;;;16.60;99.90;;;;;;5113000;28;19920;-76
2023/10/07 12:22:04;;;;;;;;;;;16.70;99.90;;;;;;5119331;28;19956;-74
2023/10/07 12:24:32;;;;;;;;;;;16.80;99.90;;;;;;5117447;28;19920;-74
2023/10/07 12:26:59;;;;;;;;;;;16.80;99.90;;;;;;5117836;28;19950;-75
2023/10/07 12:29:27;;;;;;;;;;;17.00;99.90;;;;;;5112736;28;20146;-74
2023/10/07 12:31:54;;;;;;;;;;;17.20;99.90;;;;;;5104301;28;19919;-75
2023/10/07 12:34:20;;;;;;;;;;;17.30;99.90;;;;;;5104713;28;19979;-75
2023/10/07 12:36:52;;;;;;;;;;;17.30;99.90;;;;;;5117358;28;19935;-74
2023/10/07 12:39:21;;;;;;;;;;;17.30;99.90;;;;;;5112500;28;19991;-74
2023/10/07 12:41:49;;;;;;;;;;;17.20;99.90;;;;;;5110173;28;19919;-74
2023/10/07 12:44:16;;;;;;;;;;;17.20;99.90;;;;;;5112283;28;19959;-74
2023/10/07 12:46:43;;;;;;;;;;;17.20;99.90;;;;;;5109135;28;19924;-75
2023/10/07 12:49:11;;;;;;;;;;;17.20;99.90;;;;;;5115984;28;19920;-75
2023/10/07 12:51:38;;;;;;;;;;;17.10;99.90;;;;;;5111767;28;19971;-74
2023/10/07 12:54:08;;;;;;;;;;;17.10;99.90;;;;;;5118540;28;19992;-73
2023/10/07 12:56:36;;;;;;;;;;;17.10;99.90;;;;;;5112764;28;19957;-75
2023/10/07 12:59:07;;;;;;;;;;;17.00;99.90;;;;;;5106028;28;19959;-75
2023/10/07 13:01:34;;;;;;;;;;;17.00;99.90;;;;;;5100169;28;19921;-75
2023/10/07 13:04:01;;;;;;;;;;;16.90;99.90;;;;;;5108346;28;19979;-75
2023/10/07 13:06:29;;;;;;;;;;;17.00;99.90;;;;;;5107944;28;19958;-75
2023/10/07 13:08:57;;;;;;;;;;;17.00;99.90;;;;;;5108456;28;19927;-75
2023/10/07 13:11:26;;;;;;;;;;;17.10;99.90;;;;;;5107975;28;19920;-72
2023/10/07 13:13:54;;;;;;;;;;;17.10;99.90;;;;;;5106039;28;19920;-75
2023/10/07 13:16:22;;;;;;;;;;;17.10;99.90;;;;;;5110240;28;19955;-74
2023/10/07 13:18:49;;;;;;;;;;;17.20;99.90;;;;;;5108866;28;19979;-74
2023/10/07 13:21:18;;;;;;;;;;;17.20;99.90;;;;;;5111873;28;19979;-73
2023/10/07 13:23:45;;;;;;;;;;;17.10;99.90;;;;;;5110634;28;19980;-74
2023/10/07 13:26:12;;;;;;;;;;;17.20;99.90;;;;;;5110299;28;19920;-74
2023/10/07 13:28:39;;;;;;;;;;;17.10;99.90;;;;;;5108913;28;19979;-74
2023/10/07 13:31:07;;;;;;;;;;;17.00;99.90;;;;;;5101291;28;19928;-74
2023/10/07 13:33:36;;;;;;;;;;;16.90;99.90;;;;;;5101218;28;19928;-75
2023/10/07 13:36:03;;;;;;;;;;;16.90;99.90;;;;;;5115864;28;19924;-74
2023/10/07 13:38:30;;;;;;;;;;;16.90;99.90;;;;;;5112510;28;19959;-74
2023/10/07 13:40:57;;;;;;;;;;;16.90;99.90;;;;;;5116148;28;20113;-74
2023/10/07 13:43:24;;;;;;;;;;;17.00;99.90;;;;;;5111633;28;20454;-74
2023/10/07 13:45:51;;;;;;;;;;;17.00;99.90;;;;;;5112262;28;19991;-73
2023/10/07 13:48:18;;;;;;;;;;;17.00;99.90;;;;;;5114096;28;19919;-74
2023/10/07 13:50:46;;;;;;;;;;;17.00;99.90;;;;;;5118063;28;20050;-75
2023/10/07 13:53:14;;;;;;;;;;;17.10;99.90;;;;;;5099365;28;19955;-74
2023/10/07 13:55:56;;;;;;;;;;;17.10;99.90;;;;;;5104188;28;19928;-74
2023/10/07 13:58:23;;;;;;;;;;;17.10;99.90;;;;;;5107729;28;20245;-75
2023/10/07 14:00:51;;;;;;;;;;;17.20;99.90;;;;;;5114496;28;20173;-75
2023/10/07 14:03:20;;;;;;;;;;;17.40;99.90;;;;;;5103373;28;19952;-74
2023/10/07 14:05:50;;;;;;;;;;;17.60;99.90;;;;;;5125481;27;19919;-73
2023/10/07 14:08:18;;;;;;;;;;;17.80;99.90;;;;;;5130839;27;20210;-74
2023/10/07 14:10:47;;;;;;;;;;;17.90;99.90;;;;;;5124606;28;19926;-75
2023/10/07 14:13:15;;;;;;;;;;;17.90;99.90;;;;;;5128548;27;20205;-75
2023/10/07 14:15:41;;;;;;;;;;;17.80;99.90;;;;;;5132443;27;19928;-75
2023/10/07 14:18:08;;;;;;;;;;;17.70;99.90;;;;;;5137947;27;19983;-75
2023/10/07 14:20:35;;;;;;;;;;;17.70;99.90;;;;;;5129068;27;19955;-74
2023/10/07 14:23:03;;;;;;;;;;;17.60;99.90;;;;;;5127292;27;19926;-74
2023/10/07 14:25:29;;;;;;;;;;;17.50;99.90;;;;;;5129815;27;19958;-74
2023/10/07 14:27:56;;;;;;;;;;;17.50;99.90;;;;;;5132631;27;19923;-73
2023/10/07 14:30:23;;;;;;;;;;;17.50;99.90;;;;;;5126017;27;19958;-74
2023/10/07 14:32:50;;;;;;;;;;;17.60;99.90;;;;;;5133621;27;19964;-74
2023/10/07 14:35:17;;;;;;;;;;;17.90;99.90;;;;;;5128017;27;19951;-74
2023/10/07 14:37:45;;;;;;;;;;;18.00;99.90;;;;;;5123874;28;20145;-74
2023/10/07 14:40:17;;;;;;;;;;;18.20;99.90;;;;;;5123653;28;19920;-74
2023/10/07 14:42:45;;;;;;;;;;;18.30;99.90;;;;;;5128605;28;19935;-72
2023/10/07 14:45:12;;;;;;;;;;;18.40;99.90;;;;;;5117848;28;19920;-74
2023/10/07 14:47:38;;;;;;;;;;;18.30;99.90;;;;;;5125857;28;20205;-76
2023/10/07 14:50:06;;;;;;;;;;;18.30;99.90;;;;;;5131718;28;20041;-73
2023/10/07 14:52:33;;;;;;;;;;;18.30;99.90;;;;;;5132089;28;19983;-74
2023/10/07 14:55:00;;;;;;;;;;;18.20;99.90;;;;;;5130279;28;20002;-74